Tropical Cyclones
[Index]
Main Index Home Page Stock Weather Photos Extreme Storms Discussion Storm News and Storm Chasing Reports Tropical Cyclones / Hurricanes / Typhoons Weather Data and Links Wild Fires / Bushfires Weather Observation Techniques Weather Picture Catalogue Tornado Pictures and Reports Stock Video Footage and DVDs for sale
Season 2007-2008 Tropical Cyclone JOKWE Track Map
Season 2007-2008 Summaries (Operational Data): [AU] [SIO] [SPAC] [SH]
<<- Previous TC | 2007-2008 Season | Next TC ->>

click for intensity scale information  Lat/long Grid: Show Hide

 Date Labels: Show Hide

Operational Tropical Cyclone Data : JTWC Advisories

Name: JOKWE
Number: 0822

04 Mar 2008 18:00 UTC to 15 Mar 2008 00:00 UTC

    date/time    lat    long     hPa   cat  kts
2008-03-04 18   11.7    54.5    1003         20          
2008-03-05 00   11.8    52.8    1000         25          
2008-03-05 06   12.1    51.6     998         30          
2008-03-05 12   12.0    50.6     995    1    35          
2008-03-05 18   12.0    50.0     990    1    45          
2008-03-06 00   12.2    49.2     990    1    45          
2008-03-06 06   13.2    48.0     994    1    40          
2008-03-06 12   13.8    46.7     975    3    65          
2008-03-06 18   14.2    46.0     975    3    65          
2008-03-07 00   14.7    44.7     980    2    60          
2008-03-07 06   14.6    43.6     980    2    60          
2008-03-07 12   14.4    42.8     975    3    65          
2008-03-07 18   14.8    42.1     945    4    95          
2008-03-08 00   15.1    41.2     930    4   105          
2008-03-08 06   15.2    40.7     930    4   105          
2008-03-08 12   15.8    40.3     960    3    85          
2008-03-08 18   16.3    39.9     960    3    80          
2008-03-09 00   16.6    39.7     960    3    80          
2008-03-09 06   17.6    39.1     983    2    60          
2008-03-09 12   18.1    38.9     985    2    50          
2008-03-09 18   18.6    39.2     975    3    65          
2008-03-10 00   19.7    39.4     960    3    75          
2008-03-10 06   20.3    39.6     965    3    70          
2008-03-10 12   21.2    39.8     960    3    75          
2008-03-10 18   21.9    40.5     947    3    85          
2008-03-11 00   22.8    40.9     940    4    90          
2008-03-11 06   23.3    41.1     950    3    80          
2008-03-11 12   24.3    41.5     960    3    70          
2008-03-11 18   25.2    41.6     965    3    70          
2008-03-12 00   25.1    40.8     970    2    60          
2008-03-12 06   25.2    40.3     975    2    60          
2008-03-12 12   25.8    40.0     980    2    55          
2008-03-12 18   25.7    40.1     980    2    55          
2008-03-13 00   25.4    40.0     972    2    60          
2008-03-13 06   25.0    40.4     970    3    65          
2008-03-13 12   25.3    40.6     975    2    55          
2008-03-13 18   25.3    40.4     978    2    55          
2008-03-14 00   25.2    40.3     984    2    50          
2008-03-14 06   25.1    40.2     990    1    40          
2008-03-14 12   25.1    40.1     994    1    35          
2008-03-14 18   25.0    40.2     998         30          
2008-03-15 00   24.7    40.0    1001         20          
Winds are 10-min average.

Tropical cyclone tracks developed by Michael Bath using operational warnings and advisories and Google Maps.


[Australian Severe Weather index] [Copyright Notice] [Email Contacts] [Search This Site] [Privacy Policy]
Document: tropical_cyclone_jokwe.htm Updated: 2 May 2017